createdAt,value
2022-12-11T00:00:48.521Z,21.40
2022-12-11T00:05:53.539Z,21.40
2022-12-11T00:10:57.293Z,21.40
2022-12-11T00:16:01.045Z,21.40
2022-12-11T00:21:09.672Z,21.30
2022-12-11T00:26:17.054Z,21.30
2022-12-11T00:31:24.974Z,21.30
2022-12-11T00:36:30.200Z,21.30
2022-12-11T00:41:33.928Z,21.40
2022-12-11T00:46:37.782Z,21.50
2022-12-11T00:51:42.821Z,21.50
2022-12-11T00:56:46.597Z,21.50
2022-12-11T01:01:50.348Z,21.50
2022-12-11T01:06:55.821Z,21.50
2022-12-11T01:11:59.422Z,21.40
2022-12-11T01:17:03.153Z,21.50
2022-12-11T01:22:08.204Z,21.40
2022-12-11T01:27:12.010Z,21.30
2022-12-11T01:32:15.731Z,21.30
2022-12-11T01:37:20.984Z,21.30
2022-12-11T01:42:25.321Z,21.30
2022-12-11T01:47:28.860Z,21.20
2022-12-11T01:52:34.290Z,21.20
2022-12-11T01:57:39.540Z,21.20
2022-12-11T02:02:43.354Z,21.30
2022-12-11T02:07:54.341Z,21.30
2022-12-11T02:13:05.915Z,21.40
2022-12-11T02:18:22.188Z,21.50
2022-12-11T02:24:30.972Z,21.50
2022-12-11T02:29:40.971Z,21.50
2022-12-11T02:34:49.901Z,21.60
2022-12-11T02:39:57.287Z,21.50
2022-12-11T02:45:06.005Z,21.50
2022-12-11T02:50:16.256Z,21.50
2022-12-11T02:55:20.658Z,21.40
2022-12-11T03:00:25.782Z,21.40
2022-12-11T03:05:29.557Z,21.30
2022-12-11T03:10:33.384Z,21.30
2022-12-11T03:15:54.924Z,21.40
2022-12-11T03:21:09.450Z,21.40
2022-12-11T03:26:16.047Z,21.50
2022-12-11T03:31:40.096Z,21.60
2022-12-11T03:36:45.373Z,21.60
2022-12-11T03:41:54.691Z,21.50
2022-12-11T03:47:02.298Z,21.50
2022-12-11T03:52:07.803Z,21.50
2022-12-11T03:57:16.389Z,21.50
2022-12-11T04:02:21.544Z,21.40
2022-12-11T04:07:25.267Z,21.40
2022-12-11T04:12:28.871Z,21.40
2022-12-11T04:18:09.730Z,21.50
2022-12-11T04:23:34.151Z,21.60
2022-12-11T04:28:38.053Z,21.70
2022-12-11T04:33:43.835Z,21.80
2022-12-11T04:38:47.495Z,21.70
2022-12-11T04:43:51.187Z,21.80
2022-12-11T04:48:57.910Z,21.70
2022-12-11T04:54:01.977Z,21.70
2022-12-11T04:59:05.602Z,21.60
2022-12-11T05:04:10.813Z,21.60
2022-12-11T05:09:15.158Z,21.50
2022-12-11T05:14:19.118Z,21.50
2022-12-11T05:19:24.593Z,21.50
2022-12-11T05:24:28.244Z,21.50
2022-12-11T05:29:31.892Z,21.50
2022-12-11T05:34:37.060Z,21.40
2022-12-11T05:39:40.966Z,21.40
2022-12-11T05:44:44.653Z,21.30
2022-12-11T05:49:49.651Z,21.30
2022-12-11T05:54:53.368Z,21.30
2022-12-11T05:59:57.026Z,21.20
2022-12-11T06:05:02.057Z,21.20
2022-12-11T06:10:06.909Z,21.20
2022-12-11T06:15:11.787Z,21.10
2022-12-11T06:20:17.286Z,21.10
2022-12-11T06:25:21.030Z,21.10
2022-12-11T06:30:39.148Z,21.00
2022-12-11T06:35:44.643Z,21.00
2022-12-11T06:40:56.765Z,21.00
2022-12-11T06:46:03.836Z,21.00
2022-12-11T06:51:12.704Z,21.00
2022-12-11T06:56:17.184Z,21.00
2022-12-11T07:01:24.765Z,21.00
2022-12-11T07:06:30.465Z,21.00
2022-12-11T07:11:34.203Z,21.00
2022-12-11T07:16:38.157Z,21.00
2022-12-11T07:21:43.377Z,21.00
2022-12-11T07:26:47.135Z,21.00
2022-12-11T07:31:50.839Z,21.00
2022-12-11T07:36:55.943Z,21.10
2022-12-11T07:41:59.633Z,21.00
2022-12-11T07:47:03.444Z,21.10
2022-12-11T07:52:08.650Z,21.10
2022-12-11T07:57:14.047Z,21.10
2022-12-11T08:02:18.055Z,21.10
2022-12-11T08:07:23.175Z,21.10
2022-12-11T08:12:26.875Z,21.10
2022-12-11T08:17:34.006Z,21.10
2022-12-11T08:22:43.430Z,21.10
2022-12-11T08:27:47.150Z,21.10
2022-12-11T08:32:50.811Z,21.10
2022-12-11T08:37:56.025Z,21.10
2022-12-11T08:42:59.687Z,21.10
2022-12-11T08:48:03.534Z,21.10
2022-12-11T08:53:08.760Z,21.10
2022-12-11T08:58:12.451Z,21.10
2022-12-11T09:03:16.117Z,21.10
2022-12-11T09:08:21.293Z,21.00
2022-12-11T09:13:25.269Z,20.70
2022-12-11T09:18:29.082Z,20.50
2022-12-11T09:23:34.620Z,20.30
2022-12-11T09:28:44.330Z,20.30
2022-12-11T09:33:49.934Z,20.10
2022-12-11T09:38:55.851Z,20.00
2022-12-11T09:44:17.017Z,20.00
2022-12-11T09:49:33.384Z,19.90
2022-12-11T09:54:41.306Z,19.90
2022-12-11T10:00:04.510Z,19.90
2022-12-11T10:05:21.562Z,19.90
2022-12-11T10:10:43.579Z,19.90
2022-12-11T10:15:56.200Z,19.90
2022-12-11T10:21:03.887Z,19.90
2022-12-11T10:26:16.355Z,19.90
2022-12-11T10:31:25.768Z,19.90
2022-12-11T10:36:32.475Z,19.90
2022-12-11T10:41:41.113Z,19.90
2022-12-11T10:46:45.511Z,19.90
2022-12-11T10:51:49.348Z,19.80
2022-12-11T10:56:55.560Z,19.80
2022-12-11T11:01:59.995Z,19.80
2022-12-11T11:07:13.259Z,19.80
2022-12-11T11:12:27.269Z,19.80
2022-12-11T11:17:35.485Z,19.80
2022-12-11T11:22:46.080Z,19.70
2022-12-11T11:27:57.969Z,19.80
2022-12-11T11:33:07.070Z,19.70
2022-12-11T11:38:20.693Z,19.70
2022-12-11T11:43:42.662Z,19.70
2022-12-11T11:49:00.319Z,19.70
2022-12-11T11:54:16.738Z,19.70
2022-12-11T11:59:29.159Z,19.70
2022-12-11T12:04:37.038Z,19.60
2022-12-11T12:09:49.555Z,19.60
2022-12-11T12:15:18.334Z,19.60
2022-12-11T12:20:36.841Z,19.60
2022-12-11T12:25:48.777Z,19.60
2022-12-11T12:31:15.714Z,19.60
2022-12-11T12:36:31.753Z,19.60
2022-12-11T12:41:48.449Z,19.50
2022-12-11T12:47:01.848Z,19.50
2022-12-11T12:52:08.144Z,19.50
2022-12-11T12:57:11.911Z,19.50
2022-12-11T13:02:18.866Z,19.50
2022-12-11T13:07:30.101Z,19.40
2022-12-11T13:12:43.835Z,19.40
2022-12-11T13:17:49.206Z,19.40
2022-12-11T13:23:10.318Z,19.40
2022-12-11T13:28:31.281Z,19.40
2022-12-11T13:33:44.313Z,19.40
2022-12-11T13:38:52.447Z,19.40
2022-12-11T13:43:56.958Z,19.40
2022-12-11T13:49:07.120Z,19.30
2022-12-11T13:54:19.684Z,19.40
2022-12-11T13:59:31.096Z,19.30
2022-12-11T14:04:37.227Z,19.30
2022-12-11T14:09:45.693Z,19.30
2022-12-11T14:14:53.349Z,19.30
2022-12-11T14:20:02.694Z,19.30
2022-12-11T14:25:23.888Z,19.30
2022-12-11T14:30:31.306Z,19.30
2022-12-11T14:35:42.091Z,19.30
2022-12-11T14:40:51.866Z,19.30
2022-12-11T14:46:01.770Z,19.20
2022-12-11T14:51:13.319Z,19.20
2022-12-11T14:56:22.580Z,19.20
2022-12-11T15:01:29.928Z,19.20
2022-12-11T15:06:44.808Z,19.20
2022-12-11T15:11:50.480Z,19.20
2022-12-11T15:16:57.747Z,19.20
2022-12-11T15:22:10.625Z,19.20
2022-12-11T15:27:27.506Z,19.20
2022-12-11T15:32:31.626Z,19.20
2022-12-11T15:37:38.494Z,19.30
2022-12-11T15:42:43.788Z,19.30
2022-12-11T15:47:49.813Z,19.30
2022-12-11T15:52:57.787Z,19.20
2022-12-11T15:58:03.466Z,19.10
2022-12-11T16:03:07.255Z,19.00
2022-12-11T16:08:16.233Z,19.10
2022-12-11T16:13:20.096Z,19.30
2022-12-11T16:18:26.554Z,19.40
2022-12-11T16:23:31.637Z,19.30
2022-12-11T16:28:35.272Z,19.20
2022-12-11T16:33:39.009Z,19.30
2022-12-11T16:38:52.873Z,19.30
2022-12-11T16:43:57.540Z,19.30
2022-12-11T16:49:01.184Z,19.30
2022-12-11T16:54:07.022Z,19.30
2022-12-11T16:59:10.980Z,19.30
2022-12-11T17:04:14.619Z,19.30
2022-12-11T17:09:19.887Z,19.30
2022-12-11T17:14:23.641Z,19.30
2022-12-11T17:19:28.689Z,19.30
2022-12-11T17:24:33.750Z,19.30
2022-12-11T17:29:37.915Z,19.30
2022-12-11T17:34:41.563Z,19.30
2022-12-11T17:39:47.600Z,19.30
2022-12-11T17:44:51.356Z,19.20
2022-12-11T17:49:55.204Z,19.20
2022-12-11T17:55:00.244Z,19.20
2022-12-11T18:00:04.317Z,19.20
2022-12-11T18:05:16.231Z,19.20
2022-12-11T18:10:22.638Z,19.20
2022-12-11T18:15:26.517Z,19.20
2022-12-11T18:20:31.519Z,19.50
2022-12-11T18:25:36.504Z,20.00
2022-12-11T18:30:40.482Z,20.40
2022-12-11T18:35:44.230Z,20.80
2022-12-11T18:40:49.299Z,21.20
2022-12-11T18:45:52.880Z,21.40
2022-12-11T18:50:56.553Z,21.50
2022-12-11T18:56:01.770Z,21.50
2022-12-11T19:01:09.939Z,21.50
2022-12-11T19:06:17.562Z,21.40
2022-12-11T19:11:27.853Z,21.40
2022-12-11T19:16:35.163Z,21.20
2022-12-11T19:21:40.404Z,21.20
2022-12-11T19:26:46.382Z,21.10
2022-12-11T19:31:50.536Z,21.00
2022-12-11T19:36:54.776Z,21.00
2022-12-11T19:41:59.803Z,20.90
2022-12-11T19:47:03.554Z,20.80
2022-12-11T19:52:07.363Z,20.80
2022-12-11T19:57:12.375Z,20.90
2022-12-11T20:02:16.160Z,21.30
2022-12-11T20:07:20.044Z,21.70
2022-12-11T20:12:25.068Z,21.90
2022-12-11T20:17:28.668Z,22.00
2022-12-11T20:22:32.290Z,22.00
2022-12-11T20:27:38.820Z,22.00
2022-12-11T20:32:42.725Z,21.90
2022-12-11T20:37:46.618Z,21.90
2022-12-11T20:42:51.587Z,21.80
2022-12-11T20:47:55.566Z,21.70
2022-12-11T20:52:59.212Z,21.70
2022-12-11T20:58:04.392Z,21.60
2022-12-11T21:03:08.240Z,21.50
2022-12-11T21:08:13.139Z,21.50
2022-12-11T21:13:18.650Z,21.40
2022-12-11T21:18:22.300Z,21.30
2022-12-11T21:23:26.203Z,21.30
2022-12-11T21:28:35.420Z,21.20
2022-12-11T21:33:39.508Z,21.20
2022-12-11T21:38:45.218Z,21.40
2022-12-11T21:44:56.540Z,21.80
2022-12-11T21:49:17.051Z,22.20
2022-12-11T21:54:21.158Z,22.30
2022-12-11T21:59:26.290Z,22.40
2022-12-11T22:04:30.087Z,22.40
2022-12-11T22:09:33.694Z,22.30
2022-12-11T22:14:38.719Z,22.30
2022-12-11T22:19:42.325Z,22.20
2022-12-11T22:24:46.071Z,22.20
2022-12-11T22:29:51.079Z,22.10
2022-12-11T22:34:56.316Z,22.00
2022-12-11T22:39:59.986Z,21.90
2022-12-11T22:45:06.355Z,21.90
2022-12-11T22:50:12.183Z,21.80
2022-12-11T22:55:16.041Z,21.70
2022-12-11T23:00:21.378Z,21.70
2022-12-11T23:05:24.990Z,21.70
2022-12-11T23:10:28.633Z,21.70
2022-12-11T23:15:33.603Z,21.70
2022-12-11T23:20:37.229Z,21.60
2022-12-11T23:25:40.923Z,21.50
2022-12-11T23:30:46.038Z,21.50
2022-12-11T23:35:49.704Z,21.40
2022-12-11T23:40:53.807Z,21.50
2022-12-11T23:45:59.102Z,21.60
2022-12-11T23:51:05.991Z,21.70
2022-12-11T23:56:13.929Z,21.70
